sensor_id;sensor_type;location;lat;lon;timestamp;pressure;altitude;pressure_sealevel;temperature;humidity
49102;BME280;34913;47.520;19.186;2023-04-28T00:00:50;100439.50;;;4.88;75.02
49102;BME280;34913;47.520;19.186;2023-04-28T00:03:16;100437.56;;;4.91;74.67
49102;BME280;34913;47.520;19.186;2023-04-28T00:05:42;100437.66;;;4.72;75.18
49102;BME280;34913;47.520;19.186;2023-04-28T00:08:08;100434.63;;;4.80;75.28
49102;BME280;34913;47.520;19.186;2023-04-28T00:10:33;100440.81;;;4.96;74.06
49102;BME280;34913;47.520;19.186;2023-04-28T00:12:59;100443.69;;;4.92;74.89
49102;BME280;34913;47.520;19.186;2023-04-28T00:15:25;100439.72;;;5.00;74.14
49102;BME280;34913;47.520;19.186;2023-04-28T00:17:50;100436.38;;;4.97;73.54
49102;BME280;34913;47.520;19.186;2023-04-28T00:20:16;100436.38;;;4.97;73.06
49102;BME280;34913;47.520;19.186;2023-04-28T00:22:42;100434.47;;;5.00;72.73
49102;BME280;34913;47.520;19.186;2023-04-28T00:25:08;100435.47;;;4.98;72.86
49102;BME280;34913;47.520;19.186;2023-04-28T00:27:34;100428.66;;;4.94;72.93
49102;BME280;34913;47.520;19.186;2023-04-28T00:30:00;100436.28;;;4.83;73.64
49102;BME280;34913;47.520;19.186;2023-04-28T00:32:25;100431.00;;;4.65;74.84
49102;BME280;34913;47.520;19.186;2023-04-28T00:34:51;100435.81;;;4.57;75.39
49102;BME280;34913;47.520;19.186;2023-04-28T00:37:18;100431.75;;;4.52;75.79
49102;BME280;34913;47.520;19.186;2023-04-28T00:39:43;100431.03;;;4.48;76.25
49102;BME280;34913;47.520;19.186;2023-04-28T00:42:15;100423.44;;;4.42;76.24
49102;BME280;34913;47.520;19.186;2023-04-28T00:44:40;100420.91;;;4.40;76.95
49102;BME280;34913;47.520;19.186;2023-04-28T00:47:08;100425.38;;;4.38;76.47
49102;BME280;34913;47.520;19.186;2023-04-28T00:49:34;100419.28;;;4.20;76.74
49102;BME280;34913;47.520;19.186;2023-04-28T00:52:04;100423.16;;;3.95;77.43
49102;BME280;34913;47.520;19.186;2023-04-28T00:54:31;100418.53;;;3.82;78.01
49102;BME280;34913;47.520;19.186;2023-04-28T00:56:57;100430.16;;;3.77;79.02
49102;BME280;34913;47.520;19.186;2023-04-28T00:59:22;100419.75;;;3.75;79.42
49102;BME280;34913;47.520;19.186;2023-04-28T01:01:48;100426.69;;;3.76;79.53
49102;BME280;34913;47.520;19.186;2023-04-28T01:04:19;100433.03;;;3.72;79.95
49102;BME280;34913;47.520;19.186;2023-04-28T01:06:46;100432.22;;;3.70;79.77
49102;BME280;34913;47.520;19.186;2023-04-28T01:09:12;100441.19;;;3.66;79.93
49102;BME280;34913;47.520;19.186;2023-04-28T01:11:37;100440.25;;;3.67;80.28
49102;BME280;34913;47.520;19.186;2023-04-28T01:14:03;100434.22;;;3.65;79.39
49102;BME280;34913;47.520;19.186;2023-04-28T01:16:29;100437.81;;;3.62;79.05
49102;BME280;34913;47.520;19.186;2023-04-28T01:18:57;100443.31;;;3.58;78.87
49102;BME280;34913;47.520;19.186;2023-04-28T01:21:40;100452.94;;;3.39;79.55
49102;BME280;34913;47.520;19.186;2023-04-28T01:24:06;100441.03;;;3.31;80.10
49102;BME280;34913;47.520;19.186;2023-04-28T01:26:31;100449.69;;;3.33;80.61
49102;BME280;34913;47.520;19.186;2023-04-28T01:28:56;100444.16;;;3.40;80.25
49102;BME280;34913;47.520;19.186;2023-04-28T01:31:22;100451.31;;;3.36;79.53
49102;BME280;34913;47.520;19.186;2023-04-28T01:33:47;100454.91;;;3.15;80.14
49102;BME280;34913;47.520;19.186;2023-04-28T01:36:13;100455.31;;;3.05;80.50
49102;BME280;34913;47.520;19.186;2023-04-28T01:38:38;100452.63;;;3.07;80.92
49102;BME280;34913;47.520;19.186;2023-04-28T01:41:04;100457.75;;;3.10;81.45
49102;BME280;34913;47.520;19.186;2023-04-28T01:43:29;100451.44;;;3.14;81.32
49102;BME280;34913;47.520;19.186;2023-04-28T01:45:55;100445.91;;;3.20;81.31
49102;BME280;34913;47.520;19.186;2023-04-28T01:48:20;100443.09;;;3.25;81.00
49102;BME280;34913;47.520;19.186;2023-04-28T01:50:46;100442.16;;;3.26;80.62
49102;BME280;34913;47.520;19.186;2023-04-28T01:53:12;100442.94;;;3.28;81.14
49102;BME280;34913;47.520;19.186;2023-04-28T01:55:38;100435.22;;;3.25;80.31
49102;BME280;34913;47.520;19.186;2023-04-28T01:58:03;100438.91;;;3.21;80.54
49102;BME280;34913;47.520;19.186;2023-04-28T02:00:29;100432.28;;;3.12;80.30
49102;BME280;34913;47.520;19.186;2023-04-28T02:02:55;100443.47;;;3.16;81.17
49102;BME280;34913;47.520;19.186;2023-04-28T02:05:20;100439.31;;;3.12;80.34
49102;BME280;34913;47.520;19.186;2023-04-28T02:07:46;100447.66;;;3.01;80.62
49102;BME280;34913;47.520;19.186;2023-04-28T02:10:11;100449.81;;;2.91;80.77
49102;BME280;34913;47.520;19.186;2023-04-28T02:12:37;100452.22;;;2.77;81.34
49102;BME280;34913;47.520;19.186;2023-04-28T02:15:02;100449.97;;;2.68;82.67
49102;BME280;34913;47.520;19.186;2023-04-28T02:17:31;100450.03;;;2.66;82.19
49102;BME280;34913;47.520;19.186;2023-04-28T02:19:56;100453.13;;;2.56;83.20
49102;BME280;34913;47.520;19.186;2023-04-28T02:22:22;100457.09;;;2.44;83.64
49102;BME280;34913;47.520;19.186;2023-04-28T02:24:48;100458.22;;;2.38;83.96
49102;BME280;34913;47.520;19.186;2023-04-28T02:27:14;100458.69;;;2.48;84.26
49102;BME280;34913;47.520;19.186;2023-04-28T02:29:39;100454.91;;;2.55;83.82
49102;BME280;34913;47.520;19.186;2023-04-28T02:32:05;100456.41;;;2.61;82.99
49102;BME280;34913;47.520;19.186;2023-04-28T02:34:30;100454.50;;;2.64;83.30
49102;BME280;34913;47.520;19.186;2023-04-28T02:36:56;100459.66;;;2.66;83.51
49102;BME280;34913;47.520;19.186;2023-04-28T02:39:21;100455.34;;;2.65;83.65
49102;BME280;34913;47.520;19.186;2023-04-28T02:41:49;100453.56;;;2.65;83.11
49102;BME280;34913;47.520;19.186;2023-04-28T02:44:16;100452.78;;;2.63;82.94
49102;BME280;34913;47.520;19.186;2023-04-28T02:46:41;100457.03;;;2.66;83.20
49102;BME280;34913;47.520;19.186;2023-04-28T02:49:07;100458.50;;;2.73;83.32
49102;BME280;34913;47.520;19.186;2023-04-28T02:51:32;100458.09;;;2.82;83.55
49102;BME280;34913;47.520;19.186;2023-04-28T02:53:58;100462.56;;;2.80;82.87
49102;BME280;34913;47.520;19.186;2023-04-28T02:56:23;100455.41;;;2.84;82.76
49102;BME280;34913;47.520;19.186;2023-04-28T02:58:49;100451.16;;;2.81;82.43
49102;BME280;34913;47.520;19.186;2023-04-28T03:01:14;100454.03;;;2.75;82.71
49102;BME280;34913;47.520;19.186;2023-04-28T03:03:40;100448.94;;;2.72;82.93
49102;BME280;34913;47.520;19.186;2023-04-28T03:06:06;100454.50;;;2.64;83.07
49102;BME280;34913;47.520;19.186;2023-04-28T03:08:31;100456.06;;;2.68;83.82
49102;BME280;34913;47.520;19.186;2023-04-28T03:10:57;100454.44;;;2.66;82.92
49102;BME280;34913;47.520;19.186;2023-04-28T03:13:22;100455.91;;;2.51;82.87
49102;BME280;34913;47.520;19.186;2023-04-28T03:15:48;100456.22;;;2.45;83.85
49102;BME280;34913;47.520;19.186;2023-04-28T03:18:14;100459.91;;;2.39;83.87
49102;BME280;34913;47.520;19.186;2023-04-28T03:20:39;100461.34;;;2.26;84.33
49102;BME280;34913;47.520;19.186;2023-04-28T03:23:04;100465.50;;;2.10;85.35
49102;BME280;34913;47.520;19.186;2023-04-28T03:25:30;100469.41;;;2.00;86.17
49102;BME280;34913;47.520;19.186;2023-04-28T03:27:55;100463.09;;;2.04;86.28
49102;BME280;34913;47.520;19.186;2023-04-28T03:30:21;100461.25;;;2.07;86.09
49102;BME280;34913;47.520;19.186;2023-04-28T03:32:46;100471.34;;;2.16;85.82
49102;BME280;34913;47.520;19.186;2023-04-28T03:35:12;100475.22;;;2.28;85.37
49102;BME280;34913;47.520;19.186;2023-04-28T03:37:37;100468.50;;;2.43;85.59
49102;BME280;34913;47.520;19.186;2023-04-28T03:40:03;100474.88;;;2.58;85.35
49102;BME280;34913;47.520;19.186;2023-04-28T03:42:29;100479.84;;;2.64;84.34
49102;BME280;34913;47.520;19.186;2023-04-28T03:44:54;100479.78;;;2.65;83.97
49102;BME280;34913;47.520;19.186;2023-04-28T03:47:20;100471.06;;;2.65;84.04
49102;BME280;34913;47.520;19.186;2023-04-28T03:49:45;100476.50;;;2.60;83.47
49102;BME280;34913;47.520;19.186;2023-04-28T03:52:10;100477.63;;;2.55;83.43
49102;BME280;34913;47.520;19.186;2023-04-28T03:54:36;100480.44;;;2.50;84.02
49102;BME280;34913;47.520;19.186;2023-04-28T03:57:02;100484.31;;;2.62;84.91
49102;BME280;34913;47.520;19.186;2023-04-28T03:59:28;100478.47;;;2.75;84.28
49102;BME280;34913;47.520;19.186;2023-04-28T04:01:54;100487.66;;;2.86;83.67
49102;BME280;34913;47.520;19.186;2023-04-28T04:04:19;100488.50;;;2.86;83.27
49102;BME280;34913;47.520;19.186;2023-04-28T04:06:45;100487.13;;;2.77;83.00
49102;BME280;34913;47.520;19.186;2023-04-28T04:09:10;100478.94;;;2.65;83.79
49102;BME280;34913;47.520;19.186;2023-04-28T04:11:36;100489.81;;;2.56;84.54
49102;BME280;34913;47.520;19.186;2023-04-28T04:14:01;100489.97;;;2.51;85.09
49102;BME280;34913;47.520;19.186;2023-04-28T04:16:27;100487.25;;;2.54;85.31
49102;BME280;34913;47.520;19.186;2023-04-28T04:18:53;100489.56;;;2.62;85.76
49102;BME280;34913;47.520;19.186;2023-04-28T04:21:18;100493.66;;;2.67;85.74
49102;BME280;34913;47.520;19.186;2023-04-28T04:23:44;100495.13;;;2.74;85.71
49102;BME280;34913;47.520;19.186;2023-04-28T04:26:10;100494.72;;;2.84;84.80
49102;BME280;34913;47.520;19.186;2023-04-28T04:28:35;100495.84;;;2.98;84.14
49102;BME280;34913;47.520;19.186;2023-04-28T04:31:01;100492.69;;;3.11;84.01
49102;BME280;34913;47.520;19.186;2023-04-28T04:33:27;100490.25;;;3.26;84.04
49102;BME280;34913;47.520;19.186;2023-04-28T04:35:53;100497.50;;;3.40;83.81
49102;BME280;34913;47.520;19.186;2023-04-28T04:38:18;100488.06;;;3.55;82.15
49102;BME280;34913;47.520;19.186;2023-04-28T04:40:44;100498.66;;;3.72;82.64
49102;BME280;34913;47.520;19.186;2023-04-28T04:43:09;100488.91;;;3.93;82.29
49102;BME280;34913;47.520;19.186;2023-04-28T04:45:34;100493.22;;;4.13;79.12
49102;BME280;34913;47.520;19.186;2023-04-28T04:48:01;100489.53;;;4.34;78.91
49102;BME280;34913;47.520;19.186;2023-04-28T04:50:26;100487.41;;;4.60;78.46
49102;BME280;34913;47.520;19.186;2023-04-28T04:52:52;100494.66;;;4.89;76.10
49102;BME280;34913;47.520;19.186;2023-04-28T04:55:18;100491.13;;;5.23;72.09
49102;BME280;34913;47.520;19.186;2023-04-28T04:57:44;100486.91;;;5.70;69.77
49102;BME280;34913;47.520;19.186;2023-04-28T05:00:10;100494.09;;;6.45;64.82
49102;BME280;34913;47.520;19.186;2023-04-28T05:02:35;100497.13;;;6.83;63.43
49102;BME280;34913;47.520;19.186;2023-04-28T05:05:01;100492.25;;;7.91;62.08
49102;BME280;34913;47.520;19.186;2023-04-28T05:07:27;100492.88;;;8.09;57.22
49102;BME280;34913;47.520;19.186;2023-04-28T05:09:52;100489.00;;;8.42;56.68
49102;BME280;34913;47.520;19.186;2023-04-28T05:12:17;100496.00;;;8.43;56.33
49102;BME280;34913;47.520;19.186;2023-04-28T05:14:43;100492.22;;;9.25;56.31
49102;BME280;34913;47.520;19.186;2023-04-28T05:17:08;100498.78;;;9.44;54.56
49102;BME280;34913;47.520;19.186;2023-04-28T05:19:34;100493.84;;;9.76;52.59
49102;BME280;34913;47.520;19.186;2023-04-28T05:21:59;100496.56;;;10.37;49.71
49102;BME280;34913;47.520;19.186;2023-04-28T05:24:26;100496.19;;;10.42;50.12
49102;BME280;34913;47.520;19.186;2023-04-28T05:26:52;100495.81;;;9.98;49.74
49102;BME280;34913;47.520;19.186;2023-04-28T05:29:19;100503.34;;;9.92;50.82
49102;BME280;34913;47.520;19.186;2023-04-28T05:31:44;100504.22;;;10.29;51.11
49102;BME280;34913;47.520;19.186;2023-04-28T05:34:10;100504.34;;;10.15;51.73
49102;BME280;34913;47.520;19.186;2023-04-28T05:36:35;100503.44;;;10.99;50.60
49102;BME280;34913;47.520;19.186;2023-04-28T05:39:01;100510.19;;;11.03;47.73
49102;BME280;34913;47.520;19.186;2023-04-28T05:41:26;100508.56;;;10.54;49.63
49102;BME280;34913;47.520;19.186;2023-04-28T05:43:52;100505.78;;;10.55;49.22
49102;BME280;34913;47.520;19.186;2023-04-28T05:46:17;100502.22;;;11.03;50.65
49102;BME280;34913;47.520;19.186;2023-04-28T05:48:44;100503.81;;;11.16;48.21
49102;BME280;34913;47.520;19.186;2023-04-28T05:51:09;100511.13;;;10.90;50.82
49102;BME280;34913;47.520;19.186;2023-04-28T05:53:35;100499.13;;;11.42;49.40
49102;BME280;34913;47.520;19.186;2023-04-28T05:56:01;100504.69;;;11.73;48.84
49102;BME280;34913;47.520;19.186;2023-04-28T05:58:27;100499.63;;;11.92;46.91
49102;BME280;34913;47.520;19.186;2023-04-28T06:00:52;100503.94;;;12.16;45.62
49102;BME280;34913;47.520;19.186;2023-04-28T06:03:19;100505.69;;;11.94;45.89
49102;BME280;34913;47.520;19.186;2023-04-28T06:05:44;100501.06;;;11.52;47.50
49102;BME280;34913;47.520;19.186;2023-04-28T06:08:10;100503.03;;;11.94;47.41
49102;BME280;34913;47.520;19.186;2023-04-28T06:10:35;100497.06;;;12.77;44.40
49102;BME280;34913;47.520;19.186;2023-04-28T06:13:01;100492.34;;;13.44;44.67
49102;BME280;34913;47.520;19.186;2023-04-28T06:15:29;100490.59;;;13.33;42.42
49102;BME280;34913;47.520;19.186;2023-04-28T06:17:54;100485.63;;;12.66;44.05
49102;BME280;34913;47.520;19.186;2023-04-28T06:20:20;100496.75;;;13.33;43.16
49102;BME280;34913;47.520;19.186;2023-04-28T06:22:45;100502.56;;;13.38;42.63
49102;BME280;34913;47.520;19.186;2023-04-28T06:25:11;100506.53;;;13.75;42.68
49102;BME280;34913;47.520;19.186;2023-04-28T06:27:36;100510.41;;;14.20;40.90
49102;BME280;34913;47.520;19.186;2023-04-28T06:30:02;100509.00;;;14.07;40.78
49102;BME280;34913;47.520;19.186;2023-04-28T06:32:28;100514.56;;;13.94;42.58
49102;BME280;34913;47.520;19.186;2023-04-28T06:34:53;100514.13;;;14.39;43.13
49102;BME280;34913;47.520;19.186;2023-04-28T06:37:19;100513.00;;;14.32;40.94
49102;BME280;34913;47.520;19.186;2023-04-28T06:39:44;100521.19;;;13.59;41.91
49102;BME280;34913;47.520;19.186;2023-04-28T06:42:09;100513.59;;;13.13;45.72
49102;BME280;34913;47.520;19.186;2023-04-28T06:44:35;100515.41;;;12.92;44.53
49102;BME280;34913;47.520;19.186;2023-04-28T06:47:03;100511.13;;;13.00;45.82
49102;BME280;34913;47.520;19.186;2023-04-28T06:49:28;100505.00;;;13.51;44.48
49102;BME280;34913;47.520;19.186;2023-04-28T06:51:54;100514.25;;;13.78;43.57
49102;BME280;34913;47.520;19.186;2023-04-28T06:54:19;100507.44;;;13.64;42.99
49102;BME280;34913;47.520;19.186;2023-04-28T06:56:45;100506.34;;;14.07;42.89
49102;BME280;34913;47.520;19.186;2023-04-28T06:59:11;100508.34;;;14.34;43.36
49102;BME280;34913;47.520;19.186;2023-04-28T07:01:36;100506.22;;;14.28;41.52
49102;BME280;34913;47.520;19.186;2023-04-28T07:04:01;100502.06;;;14.83;41.17
49102;BME280;34913;47.520;19.186;2023-04-28T07:06:27;100501.75;;;15.25;40.88
49102;BME280;34913;47.520;19.186;2023-04-28T07:08:53;100495.59;;;15.52;39.55
49102;BME280;34913;47.520;19.186;2023-04-28T07:11:19;100492.31;;;15.21;38.69
49102;BME280;34913;47.520;19.186;2023-04-28T07:13:44;100491.66;;;14.51;40.95
49102;BME280;34913;47.520;19.186;2023-04-28T07:16:18;100492.03;;;15.14;39.90
49102;BME280;34913;47.520;19.186;2023-04-28T07:18:43;100491.19;;;15.60;39.44
49102;BME280;34913;47.520;19.186;2023-04-28T07:21:10;100492.56;;;16.02;38.55
49102;BME280;34913;47.520;19.186;2023-04-28T07:23:35;100483.03;;;15.62;38.26
49102;BME280;34913;47.520;19.186;2023-04-28T07:26:03;100486.28;;;15.66;39.20
49102;BME280;34913;47.520;19.186;2023-04-28T07:28:29;100483.03;;;15.25;38.10
49102;BME280;34913;47.520;19.186;2023-04-28T07:30:54;100481.78;;;14.42;39.55
49102;BME280;34913;47.520;19.186;2023-04-28T07:33:20;100490.09;;;14.39;40.91
49102;BME280;34913;47.520;19.186;2023-04-28T07:35:45;100480.47;;;15.23;40.07
49102;BME280;34913;47.520;19.186;2023-04-28T07:38:12;100481.13;;;15.82;39.14
49102;BME280;34913;47.520;19.186;2023-04-28T07:40:37;100482.22;;;16.34;36.49
49102;BME280;34913;47.520;19.186;2023-04-28T07:43:03;100478.88;;;16.68;34.68
49102;BME280;34913;47.520;19.186;2023-04-28T07:45:28;100473.63;;;17.02;32.94
49102;BME280;34913;47.520;19.186;2023-04-28T07:47:54;100474.84;;;17.34;33.97
49102;BME280;34913;47.520;19.186;2023-04-28T07:50:20;100474.75;;;17.51;33.27
49102;BME280;34913;47.520;19.186;2023-04-28T07:52:45;100481.13;;;17.76;32.52
49102;BME280;34913;47.520;19.186;2023-04-28T07:55:10;100469.31;;;17.69;32.38
49102;BME280;34913;47.520;19.186;2023-04-28T07:57:36;100480.19;;;17.85;32.49
49102;BME280;34913;47.520;19.186;2023-04-28T08:00:02;100467.28;;;17.97;32.19
49102;BME280;34913;47.520;19.186;2023-04-28T08:02:27;100470.19;;;18.12;32.44
49102;BME280;34913;47.520;19.186;2023-04-28T08:04:53;100460.78;;;18.24;32.34
49102;BME280;34913;47.520;19.186;2023-04-28T08:07:19;100458.22;;;17.98;32.24
49102;BME280;34913;47.520;19.186;2023-04-28T08:09:45;100452.59;;;17.75;32.13
49102;BME280;34913;47.520;19.186;2023-04-28T08:12:12;100447.41;;;17.48;34.53
49102;BME280;34913;47.520;19.186;2023-04-28T08:14:37;100441.75;;;17.25;33.12
49102;BME280;34913;47.520;19.186;2023-04-28T08:17:03;100444.31;;;17.35;31.68
49102;BME280;34913;47.520;19.186;2023-04-28T08:19:28;100446.53;;;17.39;30.96
49102;BME280;34913;47.520;19.186;2023-04-28T08:21:54;100438.97;;;17.09;31.10
49102;BME280;34913;47.520;19.186;2023-04-28T08:24:19;100433.41;;;17.36;32.21
49102;BME280;34913;47.520;19.186;2023-04-28T08:26:45;100429.91;;;17.70;30.97
49102;BME280;34913;47.520;19.186;2023-04-28T08:29:10;100430.84;;;17.95;30.75
49102;BME280;34913;47.520;19.186;2023-04-28T08:31:36;100428.00;;;17.96;29.43
49102;BME280;34913;47.520;19.186;2023-04-28T08:34:02;100422.03;;;18.35;30.32
49102;BME280;34913;47.520;19.186;2023-04-28T08:36:27;100417.97;;;18.39;31.42
49102;BME280;34913;47.520;19.186;2023-04-28T08:38:56;100417.16;;;18.47;29.71
49102;BME280;34913;47.520;19.186;2023-04-28T08:41:23;100422.72;;;18.78;29.74
49102;BME280;34913;47.520;19.186;2023-04-28T08:43:52;100414.13;;;18.99;28.42
49102;BME280;34913;47.520;19.186;2023-04-28T08:46:20;100417.47;;;19.09;29.06
49102;BME280;34913;47.520;19.186;2023-04-28T08:48:48;100410.53;;;19.22;28.33
49102;BME280;34913;47.520;19.186;2023-04-28T08:51:25;100420.41;;;19.38;27.20
49102;BME280;34913;47.520;19.186;2023-04-28T08:53:53;100414.16;;;19.46;27.46
49102;BME280;34913;47.520;19.186;2023-04-28T08:56:20;100416.00;;;19.62;28.57
49102;BME280;34913;47.520;19.186;2023-04-28T08:58:48;100411.44;;;19.54;27.95
49102;BME280;34913;47.520;19.186;2023-04-28T09:01:14;100409.19;;;19.74;27.15
49102;BME280;34913;47.520;19.186;2023-04-28T09:03:40;100403.84;;;19.66;27.28
49102;BME280;34913;47.520;19.186;2023-04-28T09:06:06;100408.63;;;19.87;27.06
49102;BME280;34913;47.520;19.186;2023-04-28T09:08:31;100405.41;;;19.91;28.29
49102;BME280;34913;47.520;19.186;2023-04-28T09:11:08;100400.34;;;19.88;25.82
49102;BME280;34913;47.520;19.186;2023-04-28T09:13:35;100400.25;;;20.04;26.33
49102;BME280;34913;47.520;19.186;2023-04-28T09:16:02;100406.34;;;19.98;26.31
49102;BME280;34913;47.520;19.186;2023-04-28T09:18:29;100408.25;;;19.90;26.97
49102;BME280;34913;47.520;19.186;2023-04-28T09:21:09;100396.31;;;19.53;26.91
49102;BME280;34913;47.520;19.186;2023-04-28T09:23:47;100398.72;;;19.79;27.91
49102;BME280;34913;47.520;19.186;2023-04-28T09:26:16;100402.66;;;19.99;26.80
49102;BME280;34913;47.520;19.186;2023-04-28T09:28:41;100393.25;;;19.95;27.93
49102;BME280;34913;47.520;19.186;2023-04-28T09:31:24;100394.22;;;20.02;26.69
49102;BME280;34913;47.520;19.186;2023-04-28T09:33:58;100391.28;;;20.12;26.85
49102;BME280;34913;47.520;19.186;2023-04-28T09:36:28;100394.44;;;19.93;26.92
49102;BME280;34913;47.520;19.186;2023-04-28T09:38:56;100391.59;;;19.00;27.78
49102;BME280;34913;47.520;19.186;2023-04-28T09:41:37;100399.88;;;19.45;28.31
49102;BME280;34913;47.520;19.186;2023-04-28T09:44:15;100390.28;;;19.82;27.74
49102;BME280;34913;47.520;19.186;2023-04-28T09:46:45;100378.75;;;19.96;28.42
49102;BME280;34913;47.520;19.186;2023-04-28T09:49:11;100377.75;;;20.20;27.23
49102;BME280;34913;47.520;19.186;2023-04-28T09:51:37;100379.47;;;20.36;27.81
49102;BME280;34913;47.520;19.186;2023-04-28T09:54:03;100369.41;;;20.53;27.33
49102;BME280;34913;47.520;19.186;2023-04-28T09:56:30;100369.72;;;20.35;26.73
49102;BME280;34913;47.520;19.186;2023-04-28T09:58:57;100370.19;;;19.93;27.71
49102;BME280;34913;47.520;19.186;2023-04-28T10:01:36;100364.88;;;19.85;25.94
49102;BME280;34913;47.520;19.186;2023-04-28T10:04:03;100358.47;;;20.08;26.68
49102;BME280;34913;47.520;19.186;2023-04-28T10:06:33;100356.81;;;20.07;26.87
49102;BME280;34913;47.520;19.186;2023-04-28T10:09:00;100360.56;;;20.21;27.13
49102;BME280;34913;47.520;19.186;2023-04-28T10:11:26;100355.84;;;20.23;26.37
49102;BME280;34913;47.520;19.186;2023-04-28T10:13:53;100348.22;;;20.27;27.29
49102;BME280;34913;47.520;19.186;2023-04-28T10:16:19;100355.09;;;20.29;25.77
49102;BME280;34913;47.520;19.186;2023-04-28T10:18:45;100340.19;;;20.42;27.12
49102;BME280;34913;47.520;19.186;2023-04-28T10:21:11;100337.56;;;20.33;26.39
49102;BME280;34913;47.520;19.186;2023-04-28T10:24:02;100344.56;;;20.20;27.59
49102;BME280;34913;47.520;19.186;2023-04-28T10:27:03;100326.25;;;19.92;26.15
49102;BME280;34913;47.520;19.186;2023-04-28T10:29:31;100332.31;;;20.17;25.30
49102;BME280;34913;47.520;19.186;2023-04-28T10:32:17;100323.00;;;19.97;26.44
49102;BME280;34913;47.520;19.186;2023-04-28T10:34:43;100312.72;;;20.46;26.68
49102;BME280;34913;47.520;19.186;2023-04-28T10:37:09;100310.78;;;20.55;26.09
49102;BME280;34913;47.520;19.186;2023-04-28T10:39:35;100304.97;;;20.20;25.02
49102;BME280;34913;47.520;19.186;2023-04-28T10:42:02;100307.69;;;19.74;26.03
49102;BME280;34913;47.520;19.186;2023-04-28T10:55:27;100292.47;;;20.04;25.95
49102;BME280;34913;47.520;19.186;2023-04-28T11:00:54;100278.50;;;19.24;27.07
49102;BME280;34913;47.520;19.186;2023-04-28T11:08:58;100267.66;;;18.46;28.55
49102;BME280;34913;47.520;19.186;2023-04-28T11:16:52;100251.41;;;19.57;30.01
49102;BME280;34913;47.520;19.186;2023-04-28T11:19:28;100248.38;;;19.60;28.52
49102;BME280;34913;47.520;19.186;2023-04-28T11:21:56;100261.06;;;18.73;28.40
49102;BME280;34913;47.520;19.186;2023-04-28T11:24:23;100262.22;;;18.70;28.75
49102;BME280;34913;47.520;19.186;2023-04-28T11:26:53;100256.47;;;18.01;29.91
49102;BME280;34913;47.520;19.186;2023-04-28T11:29:38;100257.75;;;18.38;29.50
49102;BME280;34913;47.520;19.186;2023-04-28T11:32:08;100259.22;;;18.57;29.63
49102;BME280;34913;47.520;19.186;2023-04-28T11:34:34;100259.72;;;18.60;28.58
49102;BME280;34913;47.520;19.186;2023-04-28T11:37:00;100253.16;;;18.55;29.78
49102;BME280;34913;47.520;19.186;2023-04-28T11:39:27;100247.69;;;18.24;30.04
49102;BME280;34913;47.520;19.186;2023-04-28T11:41:54;100249.13;;;18.59;29.34
49102;BME280;34913;47.520;19.186;2023-04-28T11:44:21;100240.75;;;18.54;31.08
49102;BME280;34913;47.520;19.186;2023-04-28T11:46:52;100256.03;;;18.53;28.94
49102;BME280;34913;47.520;19.186;2023-04-28T11:49:22;100259.06;;;18.50;29.31
49102;BME280;34913;47.520;19.186;2023-04-28T11:51:52;100259.44;;;18.31;30.39
49102;BME280;34913;47.520;19.186;2023-04-28T11:54:20;100256.44;;;18.26;29.77
49102;BME280;34913;47.520;19.186;2023-04-28T11:56:46;100250.06;;;18.27;29.48
49102;BME280;34913;47.520;19.186;2023-04-28T11:59:12;100234.78;;;18.27;30.10
49102;BME280;34913;47.520;19.186;2023-04-28T12:04:25;100241.28;;;18.49;29.90
49102;BME280;34913;47.520;19.186;2023-04-28T12:07:12;100228.53;;;18.43;30.41
49102;BME280;34913;47.520;19.186;2023-04-28T12:09:43;100225.31;;;18.39;30.21
49102;BME280;34913;47.520;19.186;2023-04-28T12:12:13;100220.06;;;18.54;31.58
49102;BME280;34913;47.520;19.186;2023-04-28T12:17:28;100213.34;;;18.66;30.75
49102;BME280;34913;47.520;19.186;2023-04-28T12:19:58;100222.78;;;18.46;30.59
49102;BME280;34913;47.520;19.186;2023-04-28T12:22:24;100215.31;;;18.25;32.38
49102;BME280;34913;47.520;19.186;2023-04-28T12:27:29;100213.13;;;18.12;31.58
49102;BME280;34913;47.520;19.186;2023-04-28T12:29:56;100210.09;;;18.07;31.52
49102;BME280;34913;47.520;19.186;2023-04-28T12:32:40;100216.19;;;17.93;31.62
49102;BME280;34913;47.520;19.186;2023-04-28T12:35:06;100210.97;;;17.83;33.96
49102;BME280;34913;47.520;19.186;2023-04-28T12:37:32;100205.59;;;17.75;32.48
49102;BME280;34913;47.520;19.186;2023-04-28T12:39:58;100192.66;;;17.95;31.71
49102;BME280;34913;47.520;19.186;2023-04-28T12:42:23;100192.00;;;18.09;32.10
49102;BME280;34913;47.520;19.186;2023-04-28T12:44:49;100190.44;;;18.15;33.16
49102;BME280;34913;47.520;19.186;2023-04-28T12:47:16;100183.72;;;18.27;32.28
49102;BME280;34913;47.520;19.186;2023-04-28T12:49:44;100167.59;;;18.27;33.51
49102;BME280;34913;47.520;19.186;2023-04-28T12:52:11;100163.38;;;18.33;33.38
49102;BME280;34913;47.520;19.186;2023-04-28T12:54:36;100152.81;;;18.23;32.64
49102;BME280;34913;47.520;19.186;2023-04-28T12:57:03;100150.94;;;18.32;32.18
49102;BME280;34913;47.520;19.186;2023-04-28T12:59:30;100143.25;;;18.21;32.24
49102;BME280;34913;47.520;19.186;2023-04-28T13:01:55;100138.88;;;18.28;33.09
49102;BME280;34913;47.520;19.186;2023-04-28T13:04:21;100137.00;;;18.36;33.20
49102;BME280;34913;47.520;19.186;2023-04-28T13:06:47;100127.56;;;18.49;32.44
49102;BME280;34913;47.520;19.186;2023-04-28T13:09:13;100122.88;;;18.42;32.33
49102;BME280;34913;47.520;19.186;2023-04-28T13:11:40;100114.91;;;18.18;33.09
49102;BME280;34913;47.520;19.186;2023-04-28T13:14:06;100120.75;;;18.22;33.21
49102;BME280;34913;47.520;19.186;2023-04-28T13:16:32;100122.91;;;18.34;33.27